| time (UTC) | temp C | wind direction | speed KPH | gust KPH | rain 1hr cm | rain 24hr cm | rain mn cm | humidity % | barometer mb |
| 20260906224551 | 27 | 215 | 0.0 | 4.8 | 0.00 | 0.00 | 0.00 | 26 | 1008.5 |
| 20260906223049 | 26 | 67 | 3.2 | 9.7 | 0.00 | 0.00 | 0.00 | 30 | 1008.3 |
| 20260906221548 | 26 | 19 | 0.0 | 0.0 | 0.00 | 0.00 | 0.00 | 28 | 1008.6 |
| 20260906220046 | 28 | 39 | 0.0 | 6.4 | 0.00 | 0.00 | 0.00 | 27 | 1008.8 |
| 20260906214544 | 27 | 72 | 0.0 | 3.2 | 0.00 | 0.00 | 0.00 | 26 | 1009.0 |
| 20260906213045 | 28 | 207 | 0.0 | 1.6 | 0.00 | 0.00 | 0.00 | 26 | 1009.1 |
| 20260906211542 | 28 | 332 | 1.6 | 9.7 | 0.00 | 0.00 | 0.00 | 28 | 1009.3 |
| 20260906210036 | 28 | 144 | 0.0 | 4.8 | 0.00 | 0.00 | 0.00 | 25 | 1009.7 |
| 20260906204551 | 28 | 110 | 0.0 | 9.7 | 0.00 | 0.00 | 0.00 | 27 | 1009.8 |
| 20260906203029 | 27 | 309 | 0.0 | 1.6 | 0.00 | 0.00 | 0.00 | 27 | 1010.0 |
| 20260906201527 | 27 | 13 | 3.2 | 6.4 | 0.00 | 0.00 | 0.00 | 29 | 1010.2 |
| 20260906200024 | 27 | 1 | 0.0 | 4.8 | 0.00 | 0.00 | 0.00 | 29 | 1010.3 |
| 20260906194522 | 26 | 343 | 0.0 | 3.2 | 0.00 | 0.00 | 0.00 | 30 | 1010.5 |
| 20260906193020 | 27 | 212 | 3.2 | 8.0 | 0.00 | 0.00 | 0.00 | 26 | 1010.6 |
| 20260906191518 | 27 | 156 | 0.0 | 6.4 | 0.00 | 0.00 | 0.00 | 28 | 1010.8 |
| 20260906190013 | 26 | 159 | 0.0 | 6.4 | 0.00 | 0.00 | 0.00 | 30 | 1011.2 |
| 20260906184510 | 26 | 207 | 3.2 | 4.8 | 0.00 | 0.00 | 0.00 | 28 | 1011.4 |
| 20260906183013 | 26 | 35 | 1.6 | 6.4 | 0.00 | 0.00 | 0.00 | 29 | 1011.7 |
| 20260906181506 | 25 | 42 | 3.2 | 11.3 | 0.00 | 0.00 | 0.00 | 31 | 1011.9 |
| 20260906180004 | 25 | 257 | 0.0 | 4.8 | 0.00 | 0.00 | 0.00 | 30 | 1012.1 |
| 20260906174602 | 24 | 133 | 1.6 | 9.7 | 0.00 | 0.00 | 0.00 | 32 | 1012.3 |
| 20260906173056 | 23 | 50 | 0.0 | 1.6 | 0.00 | 0.00 | 0.00 | 39 | 1012.5 |
| 20260906171602 | 23 | 319 | 0.0 | 3.2 | 0.00 | 0.00 | 0.00 | 37 | 1012.6 |
| 20260906170106 | 22 | 241 | 0.0 | 0.0 | 0.00 | 0.00 | 0.00 | 36 | 1012.6 |
| 20260906164548 | 21 | 293 | 0.0 | 1.6 | 0.00 | 0.00 | 0.00 | 36 | 1012.8 |
| 20260906163053 | 20 | 195 | 0.0 | 0.0 | 0.00 | 0.00 | 0.00 | 44 | 1013.0 |
| 20260906161540 | 19 | 253 | 0.0 | 1.6 | 0.00 | 0.00 | 0.00 | 46 | 1013.1 |
| 20260906160036 | 17 | 87 | 0.0 | 1.6 | 0.00 | 0.00 | 0.00 | 63 | 1013.1 |
| 20260906154530 | 15 | 26 | 0.0 | 0.0 | 0.00 | 0.00 | 0.00 | 70 | 1013.1 |
| 20260906153029 | 13 | 26 | 0.0 | 0.0 | 0.00 | 0.00 | 0.00 | 81 | 1013.2 |
| 20260906151522 | 12 | 26 | 0.0 | 0.0 | 0.00 | 0.00 | 0.00 | 81 | 1013.4 |
| 20260906150024 | 11 | 26 | 0.0 | 0.0 | 0.00 | 0.00 | 0.00 | 79 | 1013.6 |
| 20260906144521 | 10 | 26 | 0.0 | 0.0 | 0.00 | 0.00 | 0.00 | 81 | 1013.5 |
| 20260906143014 | -17 | 0.0 | 0.0 | 0.00 | 0.00 | 0.00 | 1013.5 | ||
| 20260906141516 | -17 | 0.0 | 0.0 | 0.00 | 0.00 | 0.00 | 1013.6 | ||
| 20260906140005 | -17 | 0.0 | 0.0 | 0.00 | 0.00 | 0.00 | 1013.6 | ||
| 20260906134502 | -17 | 0.0 | 0.0 | 0.00 | 0.00 | 0.00 | 1013.5 | ||
| 20260906133120 | -17 | 0.0 | 0.0 | 0.00 | 0.00 | 0.00 | 1013.6 | ||
| 20260906131554 | -17 | 0.0 | 0.0 | 0.00 | 0.00 | 0.00 | 1013.3 | ||
| 20260906130105 | -17 | 0.0 | 0.0 | 0.00 | 0.00 | 0.00 | 1013.2 | ||
| 20260906124543 | -17 | 0.0 | 0.0 | 0.00 | 0.00 | 0.00 | 1013.1 | ||
| 20260906123040 | -17 | 0.0 | 0.0 | 0.00 | 0.00 | 0.00 | 1013.0 | ||
| 20260906121537 | -17 | 0.0 | 0.0 | 0.00 | 0.00 | 0.00 | 1013.0 | ||
| 20260906120033 | -17 | 0.0 | 0.0 | 0.00 | 0.00 | 0.00 | 1013.1 | ||
| 20260906114541 | -17 | 0.0 | 0.0 | 0.00 | 0.00 | 0.00 | 1013.2 | ||
| 20260906113024 | -17 | 0.0 | 0.0 | 0.00 | 0.00 | 0.00 | 1013.3 | ||
| 20260906111517 | -17 | 0.0 | 0.0 | 0.00 | 0.00 | 0.00 | 1013.4 | ||
| 20260906110016 | -17 | 0.0 | 0.0 | 0.00 | 0.00 | 0.00 | 1013.6 | ||
| 20260906104514 | 7 | 20 | 0.0 | 0.0 | 0.00 | 0.00 | 0.00 | 83 | 1013.7 |
| 20260906103009 | 7 | 354 | 0.0 | 0.0 | 0.00 | 0.00 | 0.00 | 84 | 1013.4 |
| 20260906101518 | 8 | 354 | 0.0 | 0.0 | 0.00 | 0.00 | 0.00 | 84 | 1013.4 |
| 20260906100006 | 8 | 354 | 0.0 | 0.0 | 0.00 | 0.00 | 0.00 | 84 | 1013.4 |
| 20260906094506 | 8 | 354 | 0.0 | 0.0 | 0.00 | 0.00 | 0.00 | 83 | 1013.3 |
| 20260906093002 | 8 | 354 | 0.0 | 0.0 | 0.00 | 0.00 | 0.00 | 82 | 1013.4 |
| 20260906091602 | 8 | 354 | 0.0 | 0.0 | 0.00 | 0.00 | 0.00 | 82 | 1013.4 |
| 20260906090101 | 8 | 354 | 0.0 | 0.0 | 0.00 | 0.00 | 0.00 | 82 | 1013.2 |
| 20260906084558 | 9 | 354 | 0.0 | 1.6 | 0.00 | 0.00 | 0.00 | 81 | 1013.4 |
| 20260906083055 | 9 | 354 | 0.0 | 0.0 | 0.00 | 0.00 | 0.00 | 81 | 1013.4 |
| 20260906081554 | 9 | 354 | 0.0 | 0.0 | 0.00 | 0.00 | 0.00 | 80 | 1013.5 |
| 20260906080057 | 10 | 354 | 0.0 | 0.0 | 0.00 | 0.00 | 0.00 | 80 | 1013.4 |
| 20260906074550 | 10 | 354 | 0.0 | 0.0 | 0.00 | 0.00 | 0.00 | 80 | 1013.5 |
| 20260906073052 | 10 | 354 | 0.0 | 0.0 | 0.00 | 0.00 | 0.00 | 79 | 1013.5 |
| 20260906071551 | 10 | 354 | 0.0 | 0.0 | 0.00 | 0.00 | 0.00 | 79 | 1013.6 |
| 20260906070045 | 10 | 354 | 0.0 | 0.0 | 0.00 | 0.00 | 0.00 | 79 | 1013.6 |
| 20260906064544 | 11 | 354 | 0.0 | 0.0 | 0.00 | 0.00 | 0.00 | 79 | 1013.4 |
| 20260906063041 | 11 | 354 | 0.0 | 0.0 | 0.00 | 0.00 | 0.00 | 79 | 1013.4 |
| 20260906061538 | 11 | 354 | 0.0 | 0.0 | 0.00 | 0.00 | 0.00 | 78 | 1013.4 |
| 20260906060037 | 11 | 354 | 0.0 | 0.0 | 0.00 | 0.00 | 0.00 | 78 | 1013.4 |
| 20260906054553 | 11 | 354 | 0.0 | 0.0 | 0.00 | 0.00 | 0.00 | 77 | 1013.3 |
| 20260906053035 | 12 | 354 | 0.0 | 0.0 | 0.00 | 0.00 | 0.00 | 76 | 1013.1 |
| 20260906051547 | 12 | 354 | 0.0 | 0.0 | 0.00 | 0.00 | 0.00 | 75 | 1013.0 |
| 20260906050036 | 12 | 354 | 0.0 | 0.0 | 0.00 | 0.00 | 0.00 | 72 | 1012.8 |
| 20260906044536 | 12 | 354 | 0.0 | 0.0 | 0.00 | 0.00 | 0.00 | 74 | 1012.7 |
| 20260906043033 | 13 | 354 | 0.0 | 0.0 | 0.00 | 0.00 | 0.00 | 73 | 1012.6 |
| 20260906041535 | 13 | 354 | 0.0 | 0.0 | 0.00 | 0.00 | 0.00 | 75 | 1012.6 |
| 20260906040058 | 13 | 354 | 0.0 | 0.0 | 0.00 | 0.00 | 0.00 | 74 | 1012.8 |
| 20260906034533 | 13 | 354 | 0.0 | 0.0 | 0.00 | 0.00 | 0.00 | 76 | 1012.6 |
| 20260906033044 | 13 | 354 | 0.0 | 0.0 | 0.00 | 0.00 | 0.00 | 74 | 1012.5 |
| 20260906031532 | 14 | 354 | 0.0 | 0.0 | 0.00 | 0.00 | 0.00 | 72 | 1012.4 |
| 20260906030032 | 14 | 354 | 0.0 | 0.0 | 0.00 | 0.00 | 0.00 | 72 | 1012.3 |
| 20260906024531 | 15 | 354 | 0.0 | 0.0 | 0.00 | 0.00 | 0.00 | 72 | 1011.8 |
| 20260906023033 | 15 | 354 | 0.0 | 0.0 | 0.00 | 0.00 | 0.00 | 70 | 1011.7 |
| 20260906021530 | 15 | 354 | 0.0 | 0.0 | 0.00 | 0.00 | 0.00 | 69 | 1011.4 |
| 20260906020029 | 16 | 354 | 0.0 | 0.0 | 0.00 | 0.00 | 0.00 | 65 | 1011.1 |
| 20260906014530 | 17 | 354 | 0.0 | 0.0 | 0.00 | 0.00 | 0.00 | 66 | 1010.9 |
| 20260906013030 | 17 | 354 | 0.0 | 0.0 | 0.00 | 0.00 | 0.00 | 64 | 1010.8 |
| 20260906011528 | 18 | 354 | 0.0 | 0.0 | 0.00 | 0.00 | 0.00 | 59 | 1010.7 |
| 20260906010028 | 19 | 354 | 0.0 | 0.0 | 0.00 | 0.00 | 0.00 | 55 | 1010.6 |
| 20260906004527 | 20 | 353 | 0.0 | 3.2 | 0.00 | 0.00 | 0.00 | 53 | 1010.6 |
| 20260906003027 | 21 | 326 | 0.0 | 6.4 | 0.00 | 0.00 | 0.00 | 43 | 1010.5 |
| 20260906001526 | 22 | 63 | 0.0 | 4.8 | 0.00 | 0.00 | 0.00 | 40 | 1010.4 |
| 20260906000026 | 22 | 88 | 1.6 | 6.4 | 0.00 | 0.00 | 0.00 | 44 | 1010.3 |
| 20260905234526 | 24 | 328 | 0.0 | 4.8 | 0.00 | 0.00 | 0.00 | 36 | 1010.3 |
| 20260905233023 | 25 | 351 | 1.6 | 6.4 | 0.00 | 0.00 | 0.00 | 39 | 1010.4 |
| 20260905231523 | 25 | 169 | 3.2 | 6.4 | 0.00 | 0.00 | 0.00 | 35 | 1010.4 |
| 20260905230021 | 25 | 125 | 0.0 | 9.7 | 0.00 | 0.00 | 0.00 | 36 | 1010.3 |